sensor_id;sensor_type;location;lat;lon;timestamp;P1;durP1;ratioP1;P2;durP2;ratioP2
3155;SDS011;1588;50.892;7.082;2022-12-24T00:01:37;13.70;;;1.80;;
3155;SDS011;1588;50.892;7.082;2022-12-24T00:06:41;13.70;;;2.07;;
3155;SDS011;1588;50.892;7.082;2022-12-24T00:11:44;14.53;;;2.17;;
3155;SDS011;1588;50.892;7.082;2022-12-24T00:16:46;30.67;;;3.10;;
3155;SDS011;1588;50.892;7.082;2022-12-24T00:21:50;20.90;;;3.00;;
3155;SDS011;1588;50.892;7.082;2022-12-24T00:26:53;13.93;;;2.33;;
3155;SDS011;1588;50.892;7.082;2022-12-24T00:31:55;28.30;;;3.27;;
3155;SDS011;1588;50.892;7.082;2022-12-24T00:36:59;20.90;;;2.80;;
3155;SDS011;1588;50.892;7.082;2022-12-24T00:42:02;16.53;;;3.50;;
3155;SDS011;1588;50.892;7.082;2022-12-24T00:47:05;9.53;;;2.97;;
3155;SDS011;1588;50.892;7.082;2022-12-24T00:52:10;19.63;;;4.77;;
3155;SDS011;1588;50.892;7.082;2022-12-24T00:57:13;16.60;;;2.43;;
3155;SDS011;1588;50.892;7.082;2022-12-24T01:02:17;21.13;;;2.70;;
3155;SDS011;1588;50.892;7.082;2022-12-24T01:07:27;21.03;;;2.93;;
3155;SDS011;1588;50.892;7.082;2022-12-24T01:12:30;19.93;;;3.00;;
3155;SDS011;1588;50.892;7.082;2022-12-24T01:17:32;7.80;;;2.07;;
3155;SDS011;1588;50.892;7.082;2022-12-24T01:22:37;21.13;;;2.70;;
3155;SDS011;1588;50.892;7.082;2022-12-24T01:27:40;30.90;;;3.40;;
3155;SDS011;1588;50.892;7.082;2022-12-24T01:32:42;12.93;;;3.10;;
3155;SDS011;1588;50.892;7.082;2022-12-24T01:37:47;8.10;;;2.13;;
3155;SDS011;1588;50.892;7.082;2022-12-24T01:42:59;18.73;;;2.80;;
3155;SDS011;1588;50.892;7.082;2022-12-24T01:48:22;14.60;;;2.60;;
3155;SDS011;1588;50.892;7.082;2022-12-24T01:53:33;19.17;;;2.30;;
3155;SDS011;1588;50.892;7.082;2022-12-24T01:58:37;8.57;;;2.00;;
3155;SDS011;1588;50.892;7.082;2022-12-24T02:03:43;11.03;;;2.30;;
3155;SDS011;1588;50.892;7.082;2022-12-24T02:08:47;15.23;;;2.27;;
3155;SDS011;1588;50.892;7.082;2022-12-24T02:13:50;36.00;;;3.30;;
3155;SDS011;1588;50.892;7.082;2022-12-24T02:18:57;27.33;;;3.27;;
3155;SDS011;1588;50.892;7.082;2022-12-24T02:24:30;22.57;;;2.40;;
3155;SDS011;1588;50.892;7.082;2022-12-24T02:30:06;18.20;;;2.43;;
3155;SDS011;1588;50.892;7.082;2022-12-24T02:35:15;27.03;;;2.80;;
3155;SDS011;1588;50.892;7.082;2022-12-24T02:40:22;8.50;;;2.10;;
3155;SDS011;1588;50.892;7.082;2022-12-24T02:45:30;17.03;;;3.23;;
3155;SDS011;1588;50.892;7.082;2022-12-24T02:50:52;18.53;;;2.87;;
3155;SDS011;1588;50.892;7.082;2022-12-24T02:56:05;11.23;;;2.43;;
3155;SDS011;1588;50.892;7.082;2022-12-24T03:01:24;20.40;;;2.53;;
3155;SDS011;1588;50.892;7.082;2022-12-24T03:06:39;10.83;;;2.80;;
3155;SDS011;1588;50.892;7.082;2022-12-24T03:11:49;11.07;;;3.10;;
3155;SDS011;1588;50.892;7.082;2022-12-24T03:16:59;8.47;;;3.07;;
3155;SDS011;1588;50.892;7.082;2022-12-24T03:22:06;13.93;;;2.40;;
3155;SDS011;1588;50.892;7.082;2022-12-24T03:27:11;8.80;;;2.13;;
3155;SDS011;1588;50.892;7.082;2022-12-24T03:32:16;13.47;;;2.50;;
3155;SDS011;1588;50.892;7.082;2022-12-24T03:37:25;7.57;;;2.13;;
3155;SDS011;1588;50.892;7.082;2022-12-24T03:42:28;9.50;;;1.93;;
3155;SDS011;1588;50.892;7.082;2022-12-24T03:47:31;14.93;;;2.20;;
3155;SDS011;1588;50.892;7.082;2022-12-24T03:52:34;16.93;;;2.07;;
3155;SDS011;1588;50.892;7.082;2022-12-24T03:57:36;10.90;;;1.97;;
3155;SDS011;1588;50.892;7.082;2022-12-24T04:02:40;7.80;;;1.30;;
3155;SDS011;1588;50.892;7.082;2022-12-24T04:07:43;22.50;;;2.20;;
3155;SDS011;1588;50.892;7.082;2022-12-24T04:12:46;11.40;;;2.00;;
3155;SDS011;1588;50.892;7.082;2022-12-24T04:17:49;10.10;;;1.67;;
3155;SDS011;1588;50.892;7.082;2022-12-24T04:22:52;6.97;;;1.77;;
3155;SDS011;1588;50.892;7.082;2022-12-24T04:27:55;4.90;;;2.47;;
3155;SDS011;1588;50.892;7.082;2022-12-24T04:32:59;4.53;;;1.20;;
3155;SDS011;1588;50.892;7.082;2022-12-24T04:38:08;5.03;;;1.63;;
3155;SDS011;1588;50.892;7.082;2022-12-24T04:43:12;13.97;;;2.00;;
3155;SDS011;1588;50.892;7.082;2022-12-24T04:48:18;3.27;;;1.20;;
3155;SDS011;1588;50.892;7.082;2022-12-24T04:53:20;6.27;;;1.47;;
3155;SDS011;1588;50.892;7.082;2022-12-24T04:58:23;2.80;;;1.37;;
3155;SDS011;1588;50.892;7.082;2022-12-24T05:03:28;6.43;;;1.70;;
3155;SDS011;1588;50.892;7.082;2022-12-24T05:08:30;19.00;;;1.67;;
3155;SDS011;1588;50.892;7.082;2022-12-24T05:13:35;4.50;;;1.00;;
3155;SDS011;1588;50.892;7.082;2022-12-24T05:18:39;6.77;;;1.23;;
3155;SDS011;1588;50.892;7.082;2022-12-24T05:23:42;8.60;;;1.83;;
3155;SDS011;1588;50.892;7.082;2022-12-24T05:29:03;4.47;;;1.60;;
3155;SDS011;1588;50.892;7.082;2022-12-24T05:34:10;23.97;;;1.93;;
3155;SDS011;1588;50.892;7.082;2022-12-24T05:39:22;9.83;;;2.63;;
3155;SDS011;1588;50.892;7.082;2022-12-24T05:44:24;6.70;;;1.90;;
3155;SDS011;1588;50.892;7.082;2022-12-24T05:49:28;8.73;;;1.93;;
3155;SDS011;1588;50.892;7.082;2022-12-24T05:54:31;14.87;;;2.10;;
3155;SDS011;1588;50.892;7.082;2022-12-24T05:59:33;18.73;;;2.33;;
3155;SDS011;1588;50.892;7.082;2022-12-24T06:04:37;19.07;;;2.40;;
3155;SDS011;1588;50.892;7.082;2022-12-24T06:09:40;7.07;;;1.77;;
3155;SDS011;1588;50.892;7.082;2022-12-24T06:14:42;17.80;;;2.73;;
3155;SDS011;1588;50.892;7.082;2022-12-24T06:19:46;15.53;;;2.63;;
3155;SDS011;1588;50.892;7.082;2022-12-24T06:24:49;10.70;;;2.37;;
3155;SDS011;1588;50.892;7.082;2022-12-24T06:29:51;11.10;;;2.20;;
3155;SDS011;1588;50.892;7.082;2022-12-24T06:34:55;14.73;;;3.10;;
3155;SDS011;1588;50.892;7.082;2022-12-24T06:39:58;15.20;;;3.30;;
3155;SDS011;1588;50.892;7.082;2022-12-24T06:45:00;7.90;;;2.17;;
3155;SDS011;1588;50.892;7.082;2022-12-24T06:50:05;12.17;;;2.93;;
3155;SDS011;1588;50.892;7.082;2022-12-24T06:55:09;15.97;;;2.60;;
3155;SDS011;1588;50.892;7.082;2022-12-24T07:00:12;17.03;;;3.13;;
3155;SDS011;1588;50.892;7.082;2022-12-24T07:05:19;7.37;;;2.20;;
3155;SDS011;1588;50.892;7.082;2022-12-24T07:10:23;23.40;;;3.17;;
3155;SDS011;1588;50.892;7.082;2022-12-24T07:15:25;25.00;;;3.23;;
3155;SDS011;1588;50.892;7.082;2022-12-24T07:20:29;18.10;;;3.67;;
3155;SDS011;1588;50.892;7.082;2022-12-24T07:25:32;16.90;;;3.37;;
3155;SDS011;1588;50.892;7.082;2022-12-24T07:30:34;13.90;;;3.60;;
3155;SDS011;1588;50.892;7.082;2022-12-24T07:35:38;15.03;;;3.33;;
3155;SDS011;1588;50.892;7.082;2022-12-24T07:40:45;15.13;;;3.37;;
3155;SDS011;1588;50.892;7.082;2022-12-24T07:46:03;16.93;;;3.77;;
3155;SDS011;1588;50.892;7.082;2022-12-24T07:51:08;20.47;;;3.70;;
3155;SDS011;1588;50.892;7.082;2022-12-24T07:56:10;21.23;;;4.53;;
3155;SDS011;1588;50.892;7.082;2022-12-24T08:01:12;33.33;;;3.40;;
3155;SDS011;1588;50.892;7.082;2022-12-24T08:06:16;15.17;;;4.23;;
3155;SDS011;1588;50.892;7.082;2022-12-24T08:11:18;27.80;;;3.83;;
3155;SDS011;1588;50.892;7.082;2022-12-24T08:16:21;11.77;;;3.57;;
3155;SDS011;1588;50.892;7.082;2022-12-24T08:21:31;22.40;;;4.07;;
3155;SDS011;1588;50.892;7.082;2022-12-24T08:26:34;15.77;;;3.83;;
3155;SDS011;1588;50.892;7.082;2022-12-24T08:31:36;20.07;;;4.07;;
3155;SDS011;1588;50.892;7.082;2022-12-24T08:36:40;18.93;;;3.33;;
3155;SDS011;1588;50.892;7.082;2022-12-24T08:41:43;24.47;;;3.03;;
3155;SDS011;1588;50.892;7.082;2022-12-24T08:46:45;25.70;;;3.93;;
3155;SDS011;1588;50.892;7.082;2022-12-24T08:52:08;17.53;;;3.10;;
3155;SDS011;1588;50.892;7.082;2022-12-24T08:57:11;18.57;;;3.70;;
3155;SDS011;1588;50.892;7.082;2022-12-24T09:02:14;25.07;;;4.53;;
3155;SDS011;1588;50.892;7.082;2022-12-24T09:07:18;13.47;;;2.70;;
3155;SDS011;1588;50.892;7.082;2022-12-24T09:12:21;22.93;;;3.43;;
3155;SDS011;1588;50.892;7.082;2022-12-24T09:17:25;23.83;;;3.00;;
3155;SDS011;1588;50.892;7.082;2022-12-24T09:22:32;22.13;;;3.30;;
3155;SDS011;1588;50.892;7.082;2022-12-24T09:27:36;26.20;;;4.33;;
3155;SDS011;1588;50.892;7.082;2022-12-24T09:32:39;15.43;;;3.93;;
3155;SDS011;1588;50.892;7.082;2022-12-24T09:37:48;21.23;;;4.13;;
3155;SDS011;1588;50.892;7.082;2022-12-24T09:43:03;20.20;;;4.40;;
3155;SDS011;1588;50.892;7.082;2022-12-24T09:48:10;18.40;;;4.27;;
3155;SDS011;1588;50.892;7.082;2022-12-24T09:53:19;20.03;;;4.00;;
3155;SDS011;1588;50.892;7.082;2022-12-24T09:58:26;36.27;;;4.33;;
3155;SDS011;1588;50.892;7.082;2022-12-24T10:03:32;17.77;;;3.60;;
3155;SDS011;1588;50.892;7.082;2022-12-24T10:08:40;27.43;;;4.07;;
3155;SDS011;1588;50.892;7.082;2022-12-24T10:13:56;29.20;;;3.40;;
3155;SDS011;1588;50.892;7.082;2022-12-24T10:19:15;12.53;;;2.23;;
3155;SDS011;1588;50.892;7.082;2022-12-24T10:24:31;16.67;;;4.00;;
3155;SDS011;1588;50.892;7.082;2022-12-24T10:29:39;16.93;;;3.20;;
3155;SDS011;1588;50.892;7.082;2022-12-24T10:34:45;20.43;;;2.83;;
3155;SDS011;1588;50.892;7.082;2022-12-24T10:40:07;24.40;;;4.10;;
3155;SDS011;1588;50.892;7.082;2022-12-24T10:45:16;15.47;;;3.13;;
3155;SDS011;1588;50.892;7.082;2022-12-24T10:50:23;11.50;;;2.77;;
3155;SDS011;1588;50.892;7.082;2022-12-24T10:55:35;25.70;;;4.20;;
3155;SDS011;1588;50.892;7.082;2022-12-24T11:00:38;30.83;;;4.47;;
3155;SDS011;1588;50.892;7.082;2022-12-24T11:05:42;32.03;;;3.80;;
3155;SDS011;1588;50.892;7.082;2022-12-24T11:10:54;23.27;;;3.77;;
3155;SDS011;1588;50.892;7.082;2022-12-24T11:16:02;17.73;;;3.43;;
3155;SDS011;1588;50.892;7.082;2022-12-24T11:21:08;12.10;;;3.13;;
3155;SDS011;1588;50.892;7.082;2022-12-24T11:26:14;29.50;;;4.17;;
3155;SDS011;1588;50.892;7.082;2022-12-24T11:31:25;26.33;;;4.07;;
3155;SDS011;1588;50.892;7.082;2022-12-24T11:36:35;17.90;;;2.87;;
3155;SDS011;1588;50.892;7.082;2022-12-24T11:41:41;22.10;;;3.87;;
3155;SDS011;1588;50.892;7.082;2022-12-24T11:46:44;37.37;;;3.83;;
3155;SDS011;1588;50.892;7.082;2022-12-24T11:57:24;33.10;;;3.77;;
3155;SDS011;1588;50.892;7.082;2022-12-24T12:02:35;34.50;;;4.33;;
3155;SDS011;1588;50.892;7.082;2022-12-24T12:07:40;16.23;;;3.50;;
3155;SDS011;1588;50.892;7.082;2022-12-24T12:12:49;19.00;;;3.70;;
3155;SDS011;1588;50.892;7.082;2022-12-24T12:18:00;14.47;;;3.70;;
3155;SDS011;1588;50.892;7.082;2022-12-24T12:23:10;28.33;;;5.53;;
3155;SDS011;1588;50.892;7.082;2022-12-24T12:28:22;21.00;;;2.60;;
3155;SDS011;1588;50.892;7.082;2022-12-24T12:33:31;25.40;;;4.37;;
3155;SDS011;1588;50.892;7.082;2022-12-24T12:38:40;15.13;;;2.60;;
3155;SDS011;1588;50.892;7.082;2022-12-24T12:43:54;20.30;;;3.60;;
3155;SDS011;1588;50.892;7.082;2022-12-24T12:49:20;15.13;;;3.37;;
3155;SDS011;1588;50.892;7.082;2022-12-24T12:54:31;19.00;;;2.90;;
3155;SDS011;1588;50.892;7.082;2022-12-24T12:59:53;31.77;;;4.30;;
3155;SDS011;1588;50.892;7.082;2022-12-24T13:05:18;17.50;;;3.20;;
3155;SDS011;1588;50.892;7.082;2022-12-24T13:10:52;18.27;;;2.87;;
3155;SDS011;1588;50.892;7.082;2022-12-24T13:21:41;15.70;;;3.23;;
3155;SDS011;1588;50.892;7.082;2022-12-24T13:27:01;16.00;;;3.40;;
3155;SDS011;1588;50.892;7.082;2022-12-24T13:37:56;20.47;;;3.03;;
3155;SDS011;1588;50.892;7.082;2022-12-24T13:49:10;23.93;;;2.90;;
3155;SDS011;1588;50.892;7.082;2022-12-24T13:54:27;15.20;;;3.30;;
3155;SDS011;1588;50.892;7.082;2022-12-24T13:59:32;30.83;;;4.53;;
3155;SDS011;1588;50.892;7.082;2022-12-24T14:04:37;20.10;;;3.17;;
3155;SDS011;1588;50.892;7.082;2022-12-24T14:09:46;18.47;;;3.50;;
3155;SDS011;1588;50.892;7.082;2022-12-24T14:14:50;15.57;;;2.60;;
3155;SDS011;1588;50.892;7.082;2022-12-24T14:19:54;26.23;;;3.27;;
3155;SDS011;1588;50.892;7.082;2022-12-24T14:25:00;13.27;;;3.07;;
3155;SDS011;1588;50.892;7.082;2022-12-24T14:30:05;19.37;;;2.77;;
3155;SDS011;1588;50.892;7.082;2022-12-24T14:35:14;19.20;;;4.07;;
3155;SDS011;1588;50.892;7.082;2022-12-24T14:40:21;20.10;;;3.10;;
3155;SDS011;1588;50.892;7.082;2022-12-24T14:45:31;21.83;;;3.87;;
3155;SDS011;1588;50.892;7.082;2022-12-24T14:50:44;22.43;;;3.70;;
3155;SDS011;1588;50.892;7.082;2022-12-24T14:56:00;14.97;;;2.47;;
3155;SDS011;1588;50.892;7.082;2022-12-24T15:01:20;18.50;;;3.60;;
3155;SDS011;1588;50.892;7.082;2022-12-24T15:06:24;18.73;;;3.73;;
3155;SDS011;1588;50.892;7.082;2022-12-24T15:11:29;18.17;;;2.93;;
3155;SDS011;1588;50.892;7.082;2022-12-24T15:16:33;22.80;;;3.97;;
3155;SDS011;1588;50.892;7.082;2022-12-24T15:21:38;30.70;;;3.67;;
3155;SDS011;1588;50.892;7.082;2022-12-24T15:26:46;17.90;;;4.37;;
3155;SDS011;1588;50.892;7.082;2022-12-24T15:31:51;16.07;;;3.30;;
3155;SDS011;1588;50.892;7.082;2022-12-24T15:37:01;24.43;;;3.27;;
3155;SDS011;1588;50.892;7.082;2022-12-24T15:42:07;15.60;;;3.70;;
3155;SDS011;1588;50.892;7.082;2022-12-24T15:47:16;16.27;;;3.10;;
3155;SDS011;1588;50.892;7.082;2022-12-24T15:52:21;18.07;;;3.70;;
3155;SDS011;1588;50.892;7.082;2022-12-24T15:57:30;20.97;;;4.47;;
3155;SDS011;1588;50.892;7.082;2022-12-24T16:02:38;11.63;;;3.20;;
3155;SDS011;1588;50.892;7.082;2022-12-24T16:07:41;17.73;;;3.57;;
3155;SDS011;1588;50.892;7.082;2022-12-24T16:13:11;13.10;;;3.20;;
3155;SDS011;1588;50.892;7.082;2022-12-24T16:18:22;21.53;;;4.07;;
3155;SDS011;1588;50.892;7.082;2022-12-24T16:23:28;13.53;;;4.80;;
3155;SDS011;1588;50.892;7.082;2022-12-24T16:28:35;26.43;;;4.10;;
3155;SDS011;1588;50.892;7.082;2022-12-24T16:33:38;26.53;;;3.73;;
3155;SDS011;1588;50.892;7.082;2022-12-24T16:38:41;22.00;;;3.47;;
3155;SDS011;1588;50.892;7.082;2022-12-24T16:44:02;28.73;;;3.90;;
3155;SDS011;1588;50.892;7.082;2022-12-24T16:49:15;16.73;;;3.30;;
3155;SDS011;1588;50.892;7.082;2022-12-24T16:54:29;11.90;;;3.30;;
3155;SDS011;1588;50.892;7.082;2022-12-24T16:59:35;31.90;;;3.87;;
3155;SDS011;1588;50.892;7.082;2022-12-24T17:04:39;16.53;;;3.53;;
3155;SDS011;1588;50.892;7.082;2022-12-24T17:09:42;18.10;;;3.87;;
3155;SDS011;1588;50.892;7.082;2022-12-24T17:14:46;17.90;;;3.20;;
3155;SDS011;1588;50.892;7.082;2022-12-24T17:19:57;18.73;;;4.40;;
3155;SDS011;1588;50.892;7.082;2022-12-24T17:25:00;14.50;;;3.77;;
3155;SDS011;1588;50.892;7.082;2022-12-24T17:30:07;17.83;;;4.43;;
3155;SDS011;1588;50.892;7.082;2022-12-24T17:35:10;13.87;;;3.40;;
3155;SDS011;1588;50.892;7.082;2022-12-24T17:40:14;18.77;;;3.77;;
3155;SDS011;1588;50.892;7.082;2022-12-24T17:45:18;18.57;;;2.93;;
3155;SDS011;1588;50.892;7.082;2022-12-24T17:50:20;15.37;;;3.20;;
3155;SDS011;1588;50.892;7.082;2022-12-24T17:55:23;15.30;;;3.67;;
3155;SDS011;1588;50.892;7.082;2022-12-24T18:00:27;14.37;;;3.50;;
3155;SDS011;1588;50.892;7.082;2022-12-24T18:05:32;13.80;;;3.40;;
3155;SDS011;1588;50.892;7.082;2022-12-24T18:10:35;20.53;;;4.30;;
3155;SDS011;1588;50.892;7.082;2022-12-24T18:15:43;24.03;;;4.70;;
3155;SDS011;1588;50.892;7.082;2022-12-24T18:20:45;26.43;;;4.90;;
3155;SDS011;1588;50.892;7.082;2022-12-24T18:25:48;18.13;;;4.27;;
3155;SDS011;1588;50.892;7.082;2022-12-24T18:30:57;21.97;;;3.47;;
3155;SDS011;1588;50.892;7.082;2022-12-24T18:36:00;32.33;;;4.73;;
3155;SDS011;1588;50.892;7.082;2022-12-24T18:41:03;18.90;;;4.07;;
3155;SDS011;1588;50.892;7.082;2022-12-24T18:46:08;14.27;;;4.03;;
3155;SDS011;1588;50.892;7.082;2022-12-24T18:51:12;22.83;;;4.43;;
3155;SDS011;1588;50.892;7.082;2022-12-24T18:56:15;29.00;;;5.00;;
3155;SDS011;1588;50.892;7.082;2022-12-24T19:01:21;16.67;;;6.47;;
3155;SDS011;1588;50.892;7.082;2022-12-24T19:06:24;36.53;;;6.70;;
3155;SDS011;1588;50.892;7.082;2022-12-24T19:11:27;23.77;;;4.73;;
3155;SDS011;1588;50.892;7.082;2022-12-24T19:16:33;17.70;;;4.30;;
3155;SDS011;1588;50.892;7.082;2022-12-24T19:21:37;10.93;;;3.43;;
3155;SDS011;1588;50.892;7.082;2022-12-24T19:26:39;12.07;;;4.13;;
3155;SDS011;1588;50.892;7.082;2022-12-24T19:31:45;34.53;;;5.60;;
3155;SDS011;1588;50.892;7.082;2022-12-24T19:36:51;24.13;;;5.30;;
3155;SDS011;1588;50.892;7.082;2022-12-24T19:42:01;17.23;;;5.67;;
3155;SDS011;1588;50.892;7.082;2022-12-24T19:47:05;29.03;;;6.80;;
3155;SDS011;1588;50.892;7.082;2022-12-24T19:52:09;24.13;;;7.50;;
3155;SDS011;1588;50.892;7.082;2022-12-24T19:57:12;41.87;;;8.50;;
3155;SDS011;1588;50.892;7.082;2022-12-24T20:02:16;23.10;;;7.50;;
3155;SDS011;1588;50.892;7.082;2022-12-24T20:07:19;24.10;;;7.30;;
3155;SDS011;1588;50.892;7.082;2022-12-24T20:12:24;35.87;;;8.27;;
3155;SDS011;1588;50.892;7.082;2022-12-24T20:17:28;28.00;;;6.60;;
3155;SDS011;1588;50.892;7.082;2022-12-24T20:22:31;31.33;;;7.13;;
3155;SDS011;1588;50.892;7.082;2022-12-24T20:27:34;18.20;;;6.60;;
3155;SDS011;1588;50.892;7.082;2022-12-24T20:32:38;18.87;;;6.70;;
3155;SDS011;1588;50.892;7.082;2022-12-24T20:37:41;27.77;;;6.53;;
3155;SDS011;1588;50.892;7.082;2022-12-24T20:42:46;21.27;;;5.93;;
3155;SDS011;1588;50.892;7.082;2022-12-24T20:47:50;20.57;;;6.23;;
3155;SDS011;1588;50.892;7.082;2022-12-24T20:52:52;25.70;;;5.60;;
3155;SDS011;1588;50.892;7.082;2022-12-24T20:57:55;20.17;;;5.53;;
3155;SDS011;1588;50.892;7.082;2022-12-24T21:03:05;18.70;;;6.50;;
3155;SDS011;1588;50.892;7.082;2022-12-24T21:08:07;26.63;;;7.53;;
3155;SDS011;1588;50.892;7.082;2022-12-24T21:13:10;20.47;;;6.90;;
3155;SDS011;1588;50.892;7.082;2022-12-24T21:18:22;36.30;;;7.10;;
3155;SDS011;1588;50.892;7.082;2022-12-24T21:23:35;29.13;;;6.80;;
3155;SDS011;1588;50.892;7.082;2022-12-24T21:28:37;20.20;;;5.53;;
3155;SDS011;1588;50.892;7.082;2022-12-24T21:33:46;24.67;;;6.63;;
3155;SDS011;1588;50.892;7.082;2022-12-24T21:38:48;27.40;;;7.20;;
3155;SDS011;1588;50.892;7.082;2022-12-24T21:43:50;10.80;;;5.03;;
3155;SDS011;1588;50.892;7.082;2022-12-24T21:48:55;26.73;;;6.23;;
3155;SDS011;1588;50.892;7.082;2022-12-24T21:54:15;21.30;;;5.30;;
3155;SDS011;1588;50.892;7.082;2022-12-24T21:59:26;21.93;;;5.17;;
3155;SDS011;1588;50.892;7.082;2022-12-24T22:04:30;20.10;;;5.37;;
3155;SDS011;1588;50.892;7.082;2022-12-24T22:09:33;22.80;;;7.17;;
3155;SDS011;1588;50.892;7.082;2022-12-24T22:14:53;14.13;;;4.80;;
3155;SDS011;1588;50.892;7.082;2022-12-24T22:19:57;15.33;;;4.53;;
3155;SDS011;1588;50.892;7.082;2022-12-24T22:24:59;18.77;;;4.50;;
3155;SDS011;1588;50.892;7.082;2022-12-24T22:30:04;10.00;;;4.03;;
3155;SDS011;1588;50.892;7.082;2022-12-24T22:35:22;18.37;;;5.20;;
3155;SDS011;1588;50.892;7.082;2022-12-24T22:40:30;15.97;;;4.40;;
3155;SDS011;1588;50.892;7.082;2022-12-24T22:45:32;21.23;;;4.77;;
3155;SDS011;1588;50.892;7.082;2022-12-24T22:50:46;22.00;;;5.23;;
3155;SDS011;1588;50.892;7.082;2022-12-24T22:55:53;20.67;;;5.40;;
3155;SDS011;1588;50.892;7.082;2022-12-24T23:00:59;14.90;;;3.97;;
3155;SDS011;1588;50.892;7.082;2022-12-24T23:06:16;22.17;;;4.57;;
3155;SDS011;1588;50.892;7.082;2022-12-24T23:11:25;13.47;;;4.00;;
3155;SDS011;1588;50.892;7.082;2022-12-24T23:16:28;9.67;;;4.30;;
3155;SDS011;1588;50.892;7.082;2022-12-24T23:21:33;23.73;;;4.30;;
3155;SDS011;1588;50.892;7.082;2022-12-24T23:26:36;13.60;;;3.37;;
3155;SDS011;1588;50.892;7.082;2022-12-24T23:31:50;18.07;;;4.20;;
3155;SDS011;1588;50.892;7.082;2022-12-24T23:37:29;15.47;;;3.40;;
3155;SDS011;1588;50.892;7.082;2022-12-24T23:42:38;14.90;;;3.83;;
3155;SDS011;1588;50.892;7.082;2022-12-24T23:47:40;17.53;;;3.47;;
3155;SDS011;1588;50.892;7.082;2022-12-24T23:52:46;12.03;;;4.20;;
3155;SDS011;1588;50.892;7.082;2022-12-24T23:57:52;18.80;;;4.17;;
